T44 weather

Trident Basin Seaplane Base
Kodiak, Alaska, United States

Public forecast

Using degrees Fahrenheit for public forecast. Weather courtesy of forecast.io.

METAR (pilot weather report)

Closest report is Kodiak Airport, 3.8 nm (7.0 km) WSW. Retrieved 2019/09/19 08:53 UTC (40 minutes ago):

PADQ 190853Z 00000KT 10SM BKN050 09/06 A2964

TAF (pilot weather forecast)

Closest forecast is Kodiak Airport, 3.8 nm (7.0 km) WSW. Retrieved 2019/09/19 06:42 UTC (3 hours ago):

TAF PADQ 190540Z 1906/2006 20010KT P6SM SCT040 BKN070 FM191800 17006KT P6SM VCSH BKN040 OVC080 FM200100 11010KT 5SM -RA BR BKN025 OVC035 FM200500 05014G22KT 5SM -RA BKN010 OVC025